createdAt,value
2023-11-23T00:00:55.610Z,101211.03
2023-11-23T00:04:08.440Z,101219.84
2023-11-23T00:07:20.889Z,101224.19
2023-11-23T00:10:33.561Z,101235.69
2023-11-23T00:13:45.962Z,101235.06
2023-11-23T00:16:58.636Z,101231.66
2023-11-23T00:20:11.599Z,101222.34
2023-11-23T00:23:24.288Z,101240.06
2023-11-23T00:26:36.696Z,101230.13
2023-11-23T00:29:49.680Z,101228.12
2023-11-23T00:33:02.245Z,101230.97
2023-11-23T00:36:15.100Z,101230.13
2023-11-23T00:39:27.710Z,101220.63
2023-11-23T00:42:40.497Z,101206.87
2023-11-23T00:45:52.976Z,101215.50
2023-11-23T00:49:06.436Z,101223.03
2023-11-23T00:52:18.937Z,101217.13
2023-11-23T00:55:31.674Z,101211.62
2023-11-23T00:58:44.132Z,101197.44
2023-11-23T01:01:57.903Z,101199.19
2023-11-23T01:05:12.901Z,101198.81
2023-11-23T01:08:25.577Z,101201.06
2023-11-23T01:11:39.130Z,101212.81
2023-11-23T01:14:51.927Z,101215.00
2023-11-23T01:18:05.319Z,101213.00
2023-11-23T01:21:18.053Z,101208.19
2023-11-23T01:24:30.457Z,101208.66
2023-11-23T01:27:43.174Z,101201.56
2023-11-23T01:30:55.604Z,101209.59
2023-11-23T01:34:08.376Z,101216.63
2023-11-23T01:37:20.855Z,101225.53
2023-11-23T01:40:36.013Z,101213.84
2023-11-23T01:43:48.444Z,101224.97
2023-11-23T01:47:01.200Z,101216.94
2023-11-23T01:50:14.841Z,101218.03
2023-11-23T01:53:27.561Z,101215.06
2023-11-23T01:56:40.293Z,101203.41
2023-11-23T01:59:53.566Z,101206.47
2023-11-23T02:03:06.137Z,101206.47
2023-11-23T02:06:21.013Z,101201.00
2023-11-23T02:09:33.467Z,101197.28
2023-11-23T02:12:49.997Z,101198.94
2023-11-23T02:16:02.777Z,101196.34
2023-11-23T02:19:15.255Z,101195.63
2023-11-23T02:22:28.147Z,101190.97
2023-11-23T02:25:40.756Z,101191.06
2023-11-23T02:28:53.418Z,101179.72
2023-11-23T02:32:10.056Z,101184.47
2023-11-23T02:35:23.006Z,101159.22
2023-11-23T02:38:35.332Z,101164.09
2023-11-23T02:41:48.392Z,101163.00
2023-11-23T02:45:00.876Z,101151.22
2023-11-23T02:48:13.805Z,101165.34
2023-11-23T02:51:26.539Z,101160.81
2023-11-23T02:54:39.771Z,101170.38
2023-11-23T02:57:52.175Z,101174.81
2023-11-23T03:01:06.533Z,101170.16
2023-11-23T03:04:19.115Z,101164.53
2023-11-23T03:07:31.820Z,101165.81
2023-11-23T03:10:44.272Z,101163.91
2023-11-23T03:13:58.940Z,101152.13
2023-11-23T03:17:11.362Z,101142.25
2023-11-23T03:20:24.045Z,101125.97
2023-11-23T03:23:36.619Z,101137.84
2023-11-23T03:26:49.572Z,101131.91
2023-11-23T03:30:02.104Z,101127.00
2023-11-23T03:33:16.243Z,101125.81
2023-11-23T03:36:28.673Z,101132.94
2023-11-23T03:39:43.238Z,101141.50
2023-11-23T03:42:55.629Z,101149.34
2023-11-23T03:46:09.120Z,101139.97
2023-11-23T03:49:21.542Z,101139.47
2023-11-23T03:52:34.235Z,101145.50
2023-11-23T03:55:47.024Z,101137.88
2023-11-23T03:58:59.810Z,101142.16
2023-11-23T04:02:12.295Z,101124.66
2023-11-23T04:05:25.135Z,101122.25
2023-11-23T04:08:37.494Z,101124.41
2023-11-23T04:11:50.153Z,101092.78
2023-11-23T04:15:02.708Z,101102.63
2023-11-23T04:18:15.793Z,101111.16
2023-11-23T04:21:28.296Z,101118.66
2023-11-23T04:24:42.087Z,101112.47
2023-11-23T04:27:55.466Z,101112.72
2023-11-23T04:31:08.131Z,101123.94
2023-11-23T04:34:20.619Z,101127.94
2023-11-23T04:37:33.580Z,101129.78
2023-11-23T04:40:45.949Z,101131.66
2023-11-23T04:43:58.601Z,101136.28
2023-11-23T04:47:11.423Z,101130.62
2023-11-23T04:50:24.118Z,101131.44
2023-11-23T04:53:36.554Z,101134.75
2023-11-23T04:56:51.608Z,101130.44
2023-11-23T05:00:05.595Z,101122.13
2023-11-23T05:03:18.316Z,101129.28
2023-11-23T05:06:30.765Z,101127.06
2023-11-23T05:09:43.610Z,101131.44
2023-11-23T05:12:55.991Z,101145.34
2023-11-23T05:16:09.096Z,101149.37
2023-11-23T05:19:31.839Z,101151.56
2023-11-23T05:22:52.596Z,101150.25
2023-11-23T05:26:05.836Z,101145.69
2023-11-23T05:29:18.598Z,101147.84
2023-11-23T05:32:30.986Z,101145.91
2023-11-23T05:35:43.696Z,101141.91
2023-11-23T05:38:56.146Z,101138.06
2023-11-23T05:42:09.425Z,101128.37
2023-11-23T05:45:21.841Z,101139.22
2023-11-23T05:48:34.688Z,101141.50
2023-11-23T05:51:47.115Z,101135.81
2023-11-23T05:54:59.859Z,101138.81
2023-11-23T05:58:12.262Z,101135.37
2023-11-23T06:01:27.026Z,101133.88
2023-11-23T06:04:42.177Z,101142.78
2023-11-23T06:07:54.678Z,101143.72
2023-11-23T06:11:07.424Z,101148.31
2023-11-23T06:14:19.950Z,101143.59
2023-11-23T06:17:32.759Z,101141.47
2023-11-23T06:20:45.307Z,101133.25
2023-11-23T06:23:59.467Z,101135.34
2023-11-23T06:27:12.065Z,101129.78
2023-11-23T06:30:24.931Z,101136.84
2023-11-23T06:33:37.356Z,101142.78
2023-11-23T06:36:52.863Z,101143.94
2023-11-23T06:40:05.898Z,101141.72
2023-11-23T06:43:18.760Z,101140.72
2023-11-23T06:46:31.182Z,101156.22
2023-11-23T06:49:44.145Z,101147.00
2023-11-23T06:52:58.045Z,101148.84
2023-11-23T06:56:14.814Z,101145.06
2023-11-23T06:59:27.291Z,101141.50
2023-11-23T07:02:40.072Z,101128.56
2023-11-23T07:05:52.901Z,101134.69
2023-11-23T07:09:05.875Z,101117.50
2023-11-23T07:12:19.055Z,101110.72
2023-11-23T07:15:31.918Z,101111.47
2023-11-23T07:18:44.639Z,101110.44
2023-11-23T07:21:57.459Z,101116.34
2023-11-23T07:25:10.815Z,101124.81
2023-11-23T07:28:26.160Z,101119.62
2023-11-23T07:31:40.021Z,101119.44
2023-11-23T07:34:53.978Z,101130.03
2023-11-23T07:38:06.996Z,101131.38
2023-11-23T07:41:19.814Z,101138.00
2023-11-23T07:44:32.509Z,101137.63
2023-11-23T07:47:45.448Z,101138.84
2023-11-23T07:50:58.133Z,101135.09
2023-11-23T07:54:11.085Z,101129.06
2023-11-23T07:57:23.642Z,101115.94
2023-11-23T08:00:39.694Z,101113.81
2023-11-23T08:03:52.920Z,101118.50
2023-11-23T08:07:06.819Z,101126.25
2023-11-23T08:10:20.804Z,101099.84
2023-11-23T08:13:33.304Z,101095.22
2023-11-23T08:16:45.987Z,101092.69
2023-11-23T08:19:58.471Z,101093.56
2023-11-23T08:23:13.812Z,101087.19
2023-11-23T08:26:27.190Z,101087.53
2023-11-23T08:29:40.328Z,101080.78
2023-11-23T08:32:52.954Z,101075.03
2023-11-23T08:36:06.337Z,101081.94
2023-11-23T08:39:20.531Z,101078.41
2023-11-23T08:42:34.736Z,101070.22
2023-11-23T08:45:47.560Z,101078.38
2023-11-23T08:49:01.273Z,101076.44
2023-11-23T08:52:14.783Z,101073.72
2023-11-23T08:55:27.520Z,101070.22
2023-11-23T08:58:40.978Z,101070.00
2023-11-23T09:01:59.103Z,101075.38
2023-11-23T09:05:18.163Z,101078.38
2023-11-23T09:08:30.901Z,101068.13
2023-11-23T09:11:43.325Z,101073.19
2023-11-23T09:14:58.333Z,101064.75
2023-11-23T09:18:12.096Z,101071.22
2023-11-23T09:21:25.368Z,101079.16
2023-11-23T09:24:39.132Z,101078.19
2023-11-23T09:27:52.904Z,101067.06
2023-11-23T09:31:05.417Z,101068.59
2023-11-23T09:34:19.009Z,101079.97
2023-11-23T09:37:31.545Z,101064.84
2023-11-23T09:40:44.291Z,101050.13
2023-11-23T09:43:56.734Z,101066.44
2023-11-23T09:47:10.495Z,101038.47
2023-11-23T09:50:23.179Z,101030.94
2023-11-23T09:53:36.092Z,101041.31
2023-11-23T09:56:48.702Z,101036.19
2023-11-23T10:00:01.483Z,101032.03
2023-11-23T10:03:15.651Z,101039.69
2023-11-23T10:06:28.667Z,101026.94
2023-11-23T10:09:42.094Z,101022.59
2023-11-23T10:12:57.917Z,101023.28
2023-11-23T10:16:13.547Z,100998.44
2023-11-23T10:19:26.436Z,100999.94
2023-11-23T10:22:50.907Z,100994.84
2023-11-23T10:26:03.886Z,100983.69
2023-11-23T10:29:16.387Z,100974.97
2023-11-23T10:32:32.206Z,100979.94
2023-11-23T10:35:53.939Z,100973.94
2023-11-23T10:39:07.421Z,100968.50
2023-11-23T10:42:20.657Z,100952.91
2023-11-23T10:45:36.788Z,100946.69
2023-11-23T10:48:50.058Z,100952.13
2023-11-23T10:52:04.611Z,100942.72
2023-11-23T10:55:17.201Z,100934.94
2023-11-23T10:58:30.686Z,100920.91
2023-11-23T11:01:43.312Z,100925.53
2023-11-23T11:04:59.482Z,100914.81
2023-11-23T11:08:12.069Z,100914.63
2023-11-23T11:11:25.938Z,100905.78
2023-11-23T11:14:39.384Z,100909.34
2023-11-23T11:17:52.957Z,100905.81
2023-11-23T11:21:08.976Z,100913.00
2023-11-23T11:24:23.156Z,100900.41
2023-11-23T11:27:35.991Z,100909.06
2023-11-23T11:30:48.833Z,100890.63
2023-11-23T11:34:02.164Z,100877.59
2023-11-23T11:37:14.914Z,100865.59
2023-11-23T11:40:28.766Z,100858.50
2023-11-23T11:43:41.489Z,100862.56
2023-11-23T11:46:54.011Z,100860.37
2023-11-23T11:50:07.134Z,100871.72
2023-11-23T11:53:20.114Z,100875.28
2023-11-23T11:56:32.877Z,100860.03
2023-11-23T11:59:45.390Z,100856.41
2023-11-23T12:02:58.772Z,100844.56
2023-11-23T12:06:11.824Z,100838.09
2023-11-23T12:09:34.351Z,100818.69
2023-11-23T12:12:52.080Z,100824.63
2023-11-23T12:16:04.682Z,100813.22
2023-11-23T12:19:20.916Z,100814.47
2023-11-23T12:22:33.770Z,100805.59
2023-11-23T12:25:46.994Z,100803.59
2023-11-23T12:29:02.767Z,100786.09
2023-11-23T12:32:16.270Z,100779.75
2023-11-23T12:35:29.872Z,100779.06
2023-11-23T12:38:43.197Z,100768.44
2023-11-23T12:41:55.807Z,100772.41
2023-11-23T12:45:10.063Z,100763.53
2023-11-23T12:48:22.658Z,100772.06
2023-11-23T12:51:36.471Z,100740.19
2023-11-23T12:56:15.780Z,100734.22
2023-11-23T12:59:28.637Z,100731.38
2023-11-23T13:02:41.633Z,100724.66
2023-11-23T13:05:55.712Z,100729.63
2023-11-23T13:09:16.885Z,100720.88
2023-11-23T13:12:30.104Z,100716.38
2023-11-23T13:15:42.628Z,100723.53
2023-11-23T13:19:11.001Z,100707.66
2023-11-23T13:22:27.906Z,100712.06
2023-11-23T13:25:40.602Z,100696.41
2023-11-23T13:28:58.453Z,100697.28
2023-11-23T13:32:11.804Z,100697.50
2023-11-23T13:35:28.849Z,100687.25
2023-11-23T13:38:41.418Z,100673.06
2023-11-23T13:41:53.736Z,100675.09
2023-11-23T13:45:09.214Z,100671.25
2023-11-23T13:48:21.707Z,100667.16
2023-11-23T13:51:35.305Z,100663.22
2023-11-23T13:54:49.113Z,100652.12
2023-11-23T13:58:02.089Z,100649.22
2023-11-23T14:01:16.776Z,100636.34
2023-11-23T14:04:30.059Z,100631.38
2023-11-23T14:07:42.483Z,100614.56
2023-11-23T14:10:55.121Z,100608.62
2023-11-23T14:14:09.504Z,100599.59
2023-11-23T14:17:23.607Z,100585.84
2023-11-23T14:20:36.925Z,100590.44
2023-11-23T14:23:51.120Z,100581.12
2023-11-23T14:27:03.959Z,100579.87
2023-11-23T14:30:20.103Z,100575.81
2023-11-23T14:33:32.617Z,100577.56
2023-11-23T14:36:45.742Z,100579.28
2023-11-23T14:39:58.721Z,100567.91
2023-11-23T14:43:13.037Z,100562.09
2023-11-23T14:46:25.475Z,100560.59
2023-11-23T14:49:39.402Z,100554.09
2023-11-23T14:52:52.199Z,100550.00
2023-11-23T14:56:05.241Z,100544.09
2023-11-23T14:59:18.038Z,100540.97
2023-11-23T15:02:32.475Z,100526.22
2023-11-23T15:05:46.992Z,100526.88
2023-11-23T15:08:59.746Z,100534.53
2023-11-23T15:12:15.357Z,100536.00
2023-11-23T15:15:31.566Z,100536.31
2023-11-23T15:18:46.165Z,100531.16
2023-11-23T15:22:03.526Z,100520.12
2023-11-23T15:25:15.977Z,100517.88
2023-11-23T15:28:28.700Z,100518.87
2023-11-23T15:31:41.331Z,100513.88
2023-11-23T15:34:54.380Z,100512.53
2023-11-23T15:38:06.732Z,100505.16
2023-11-23T15:41:19.496Z,100500.12
2023-11-23T15:44:32.663Z,100499.09
2023-11-23T15:47:45.428Z,100487.41
2023-11-23T15:50:58.439Z,100483.44
2023-11-23T15:54:11.547Z,100481.66
2023-11-23T15:57:24.063Z,100473.78
2023-11-23T16:00:37.210Z,100476.81
2023-11-23T16:03:50.946Z,100468.38
2023-11-23T16:07:04.022Z,100466.84
2023-11-23T16:10:16.756Z,100467.31
2023-11-23T16:13:29.160Z,100456.44
2023-11-23T16:16:42.762Z,100445.97
2023-11-23T16:19:55.848Z,100432.03
2023-11-23T16:23:10.039Z,100432.97
2023-11-23T16:26:22.447Z,100437.37
2023-11-23T16:29:35.138Z,100437.09
2023-11-23T16:32:47.578Z,100448.31
2023-11-23T16:36:00.441Z,100450.16
2023-11-23T16:39:18.795Z,100445.06
2023-11-23T16:42:32.138Z,100448.19
2023-11-23T16:45:46.041Z,100434.31
2023-11-23T16:48:59.043Z,100441.84
2023-11-23T16:52:11.801Z,100447.59
2023-11-23T16:55:25.975Z,100445.28
2023-11-23T16:58:40.005Z,100430.34
2023-11-23T17:01:52.860Z,100426.97
2023-11-23T17:05:10.307Z,100432.59
2023-11-23T17:08:23.821Z,100429.38
2023-11-23T17:11:36.612Z,100413.66
2023-11-23T17:14:49.330Z,100414.16
2023-11-23T17:18:01.787Z,100414.25
2023-11-23T17:21:14.503Z,100408.81
2023-11-23T17:24:28.662Z,100395.16
2023-11-23T17:27:42.932Z,100391.69
2023-11-23T17:30:56.192Z,100395.12
2023-11-23T17:34:09.488Z,100377.66
2023-11-23T17:37:21.920Z,100377.84
2023-11-23T17:40:34.625Z,100371.75
2023-11-23T17:43:52.211Z,100369.56
2023-11-23T17:47:07.435Z,100355.59
2023-11-23T17:50:20.164Z,100336.44
2023-11-23T17:53:32.858Z,100333.22
2023-11-23T17:56:45.338Z,100325.37
2023-11-23T17:59:58.108Z,100303.81
2023-11-23T18:03:12.339Z,100297.41
2023-11-23T18:06:25.132Z,100304.59
2023-11-23T18:09:37.780Z,100297.41
2023-11-23T18:12:50.589Z,100294.16
2023-11-23T18:16:04.361Z,100284.16
2023-11-23T18:19:17.297Z,100277.94
2023-11-23T18:22:30.126Z,100265.69
2023-11-23T18:25:44.662Z,100271.72
2023-11-23T18:28:57.123Z,100272.78
2023-11-23T18:32:14.708Z,100263.63
2023-11-23T18:35:28.174Z,100250.37
2023-11-23T18:38:41.117Z,100254.50
2023-11-23T18:41:53.569Z,100251.16
2023-11-23T18:45:07.054Z,100251.22
2023-11-23T18:48:19.566Z,100250.16
2023-11-23T18:51:32.497Z,100240.97
2023-11-23T18:54:45.878Z,100236.91
2023-11-23T18:57:58.662Z,100232.31
2023-11-23T19:01:11.145Z,100231.00
2023-11-23T19:04:24.562Z,100223.91
2023-11-23T19:07:37.068Z,100220.97
2023-11-23T19:10:49.917Z,100226.66
2023-11-23T19:14:02.397Z,100230.19
2023-11-23T19:17:15.386Z,100226.56
2023-11-23T19:20:27.885Z,100212.84
2023-11-23T19:23:40.941Z,100205.25
2023-11-23T19:26:53.929Z,100207.34
2023-11-23T19:30:08.883Z,100211.03
2023-11-23T19:33:22.105Z,100203.56
2023-11-23T19:36:35.409Z,100207.09
2023-11-23T19:39:48.717Z,100196.50
2023-11-23T19:43:02.064Z,100188.81
2023-11-23T19:46:15.008Z,100166.91
2023-11-23T19:49:28.140Z,100151.50
2023-11-23T19:52:43.699Z,100151.63
2023-11-23T19:55:56.378Z,100144.94
2023-11-23T19:59:08.775Z,100141.87
2023-11-23T20:02:21.603Z,100137.09
2023-11-23T20:05:34.372Z,100129.53
2023-11-23T20:08:47.272Z,100129.22
2023-11-23T20:12:00.085Z,100127.34
2023-11-23T20:15:13.214Z,100118.72
2023-11-23T20:18:26.202Z,100117.59
2023-11-23T20:21:39.960Z,100105.69
2023-11-23T20:24:52.878Z,100088.00
2023-11-23T20:28:06.495Z,100085.06
2023-11-23T20:31:19.242Z,100073.44
2023-11-23T20:34:32.456Z,100083.31
2023-11-23T20:37:46.106Z,100079.12
2023-11-23T20:40:58.705Z,100073.69
2023-11-23T20:44:11.478Z,100073.91
2023-11-23T20:47:24.194Z,100074.25
2023-11-23T20:50:36.891Z,100063.03
2023-11-23T20:53:51.726Z,100062.59
2023-11-23T20:57:05.328Z,100051.59
2023-11-23T21:00:18.148Z,100059.34
2023-11-23T21:03:31.193Z,100055.97
2023-11-23T21:06:55.913Z,100054.72
2023-11-23T21:10:14.655Z,100052.84
2023-11-23T21:13:28.592Z,100044.44
2023-11-23T21:16:41.736Z,100033.19
2023-11-23T21:19:54.149Z,100037.66
2023-11-23T21:23:06.832Z,100023.84
2023-11-23T21:26:20.265Z,100029.78
2023-11-23T21:29:32.960Z,100026.41
2023-11-23T21:32:45.453Z,100012.31
2023-11-23T21:35:59.084Z,100001.06
2023-11-23T21:39:12.855Z,99996.94
2023-11-23T21:42:25.741Z,99978.34
2023-11-23T21:45:38.198Z,99975.63
2023-11-23T21:48:52.919Z,99970.31
2023-11-23T21:52:05.420Z,99964.91
2023-11-23T21:55:18.149Z,99958.34
2023-11-23T21:58:31.194Z,99947.09
2023-11-23T22:01:44.046Z,99940.91
2023-11-23T22:04:56.737Z,99944.66
2023-11-23T22:08:09.153Z,99946.03
2023-11-23T22:11:21.861Z,99937.59
2023-11-23T22:14:34.250Z,99940.31
2023-11-23T22:17:47.353Z,99928.72
2023-11-23T22:20:59.910Z,99923.31
2023-11-23T22:24:13.627Z,99907.63
2023-11-23T22:27:27.020Z,99893.34
2023-11-23T22:30:40.067Z,99885.63
2023-11-23T22:33:52.829Z,99875.69
2023-11-23T22:37:05.820Z,99861.50
2023-11-23T22:40:19.046Z,99843.53
2023-11-23T22:43:32.011Z,99848.22
2023-11-23T22:46:44.882Z,99826.69
2023-11-23T22:49:57.578Z,99820.16
2023-11-23T22:53:10.654Z,99819.28
2023-11-23T22:56:23.628Z,99811.94
2023-11-23T22:59:36.244Z,99796.56
2023-11-23T23:02:49.302Z,99805.38
2023-11-23T23:06:03.140Z,99799.78
2023-11-23T23:09:16.660Z,99799.09
2023-11-23T23:12:29.963Z,99785.00
2023-11-23T23:15:42.695Z,99783.72
2023-11-23T23:18:55.291Z,99768.78
2023-11-23T23:22:16.941Z,99757.19
2023-11-23T23:25:36.571Z,99756.22
2023-11-23T23:28:49.296Z,99757.47
2023-11-23T23:32:01.653Z,99749.91
2023-11-23T23:35:14.328Z,99742.31
2023-11-23T23:38:26.705Z,99740.91
2023-11-23T23:41:39.415Z,99732.47
2023-11-23T23:44:54.361Z,99718.75
2023-11-23T23:48:07.723Z,99710.00
2023-11-23T23:51:20.150Z,99712.22
2023-11-23T23:54:32.889Z,99710.31
2023-11-23T23:57:45.725Z,99706.69
